sensor_id;sensor_type;location;lat;lon;timestamp;temperature;humidity
49385;DHT22;36795;45.028;38.968;2022-11-15T00:01:15;6.10;80.80
49385;DHT22;36795;45.028;38.968;2022-11-15T00:04:20;6.10;80.90
49385;DHT22;36795;45.028;38.968;2022-11-15T00:07:25;6.10;80.90
49385;DHT22;36795;45.028;38.968;2022-11-15T00:10:29;6.00;80.80
49385;DHT22;36795;45.028;38.968;2022-11-15T00:13:33;6.00;81.00
49385;DHT22;36795;45.028;38.968;2022-11-15T00:16:37;5.90;81.00
49385;DHT22;36795;45.028;38.968;2022-11-15T00:19:41;5.90;81.00
49385;DHT22;36795;45.028;38.968;2022-11-15T00:22:46;5.90;81.00
49385;DHT22;36795;45.028;38.968;2022-11-15T00:25:57;5.90;80.90
49385;DHT22;36795;45.028;38.968;2022-11-15T00:29:02;5.90;81.00
49385;DHT22;36795;45.028;38.968;2022-11-15T00:32:06;6.00;81.10
49385;DHT22;36795;45.028;38.968;2022-11-15T00:35:10;5.90;80.90
49385;DHT22;36795;45.028;38.968;2022-11-15T00:38:14;5.90;80.90
49385;DHT22;36795;45.028;38.968;2022-11-15T00:41:19;5.80;81.00
49385;DHT22;36795;45.028;38.968;2022-11-15T00:44:23;5.80;81.00
49385;DHT22;36795;45.028;38.968;2022-11-15T00:47:27;5.80;81.00
49385;DHT22;36795;45.028;38.968;2022-11-15T00:50:32;5.80;81.00
49385;DHT22;36795;45.028;38.968;2022-11-15T00:53:36;5.80;81.10
49385;DHT22;36795;45.028;38.968;2022-11-15T00:56:40;5.70;81.10
49385;DHT22;36795;45.028;38.968;2022-11-15T00:59:44;5.70;81.20
49385;DHT22;36795;45.028;38.968;2022-11-15T01:02:48;5.70;81.20
49385;DHT22;36795;45.028;38.968;2022-11-15T01:05:52;5.70;81.30
49385;DHT22;36795;45.028;38.968;2022-11-15T01:08:56;5.70;81.40
49385;DHT22;36795;45.028;38.968;2022-11-15T01:12:04;5.70;81.50
49385;DHT22;36795;45.028;38.968;2022-11-15T01:15:09;5.70;81.40
49385;DHT22;36795;45.028;38.968;2022-11-15T01:18:13;5.70;81.50
49385;DHT22;36795;45.028;38.968;2022-11-15T01:21:19;5.70;81.60
49385;DHT22;36795;45.028;38.968;2022-11-15T01:24:23;5.70;81.80
49385;DHT22;36795;45.028;38.968;2022-11-15T01:27:27;5.60;81.90
49385;DHT22;36795;45.028;38.968;2022-11-15T01:30:31;5.60;82.10
49385;DHT22;36795;45.028;38.968;2022-11-15T01:33:36;5.60;82.10
49385;DHT22;36795;45.028;38.968;2022-11-15T01:36:40;5.50;82.10
49385;DHT22;36795;45.028;38.968;2022-11-15T01:39:44;5.50;82.10
49385;DHT22;36795;45.028;38.968;2022-11-15T01:42:48;5.40;82.50
49385;DHT22;36795;45.028;38.968;2022-11-15T01:46:19;5.40;82.60
49385;DHT22;36795;45.028;38.968;2022-11-15T01:49:27;5.30;82.70
49385;DHT22;36795;45.028;38.968;2022-11-15T01:52:34;5.30;82.80
49385;DHT22;36795;45.028;38.968;2022-11-15T01:55:39;5.20;82.90
49385;DHT22;36795;45.028;38.968;2022-11-15T01:58:44;5.10;83.10
49385;DHT22;36795;45.028;38.968;2022-11-15T02:01:50;5.00;83.30
49385;DHT22;36795;45.028;38.968;2022-11-15T02:04:54;4.90;83.40
49385;DHT22;36795;45.028;38.968;2022-11-15T02:08:00;4.80;83.40
49385;DHT22;36795;45.028;38.968;2022-11-15T02:11:08;4.80;83.50
49385;DHT22;36795;45.028;38.968;2022-11-15T02:14:15;4.80;83.60
49385;DHT22;36795;45.028;38.968;2022-11-15T02:20:51;4.70;83.60
49385;DHT22;36795;45.028;38.968;2022-11-15T02:27:35;4.60;84.10
49385;DHT22;36795;45.028;38.968;2022-11-15T02:37:56;4.40;83.70
49385;DHT22;36795;45.028;38.968;2022-11-15T02:41:15;4.40;83.70
49385;DHT22;36795;45.028;38.968;2022-11-15T02:44:31;4.20;83.60
49385;DHT22;36795;45.028;38.968;2022-11-15T02:47:45;4.30;83.90
49385;DHT22;36795;45.028;38.968;2022-11-15T02:50:50;4.30;83.70
49385;DHT22;36795;45.028;38.968;2022-11-15T02:53:54;4.30;83.50
49385;DHT22;36795;45.028;38.968;2022-11-15T02:57:03;4.20;83.20
49385;DHT22;36795;45.028;38.968;2022-11-15T03:00:12;4.20;83.50
49385;DHT22;36795;45.028;38.968;2022-11-15T03:10:02;4.10;83.40
49385;DHT22;36795;45.028;38.968;2022-11-15T03:16:27;4.00;83.70
49385;DHT22;36795;45.028;38.968;2022-11-15T03:19:54;4.00;83.80
49385;DHT22;36795;45.028;38.968;2022-11-15T03:23:04;4.00;83.70
49385;DHT22;36795;45.028;38.968;2022-11-15T03:26:11;4.10;83.60
49385;DHT22;36795;45.028;38.968;2022-11-15T03:29:24;4.10;83.50
49385;DHT22;36795;45.028;38.968;2022-11-15T03:32:31;4.10;83.50
49385;DHT22;36795;45.028;38.968;2022-11-15T03:35:40;4.00;83.50
49385;DHT22;36795;45.028;38.968;2022-11-15T03:38:46;4.00;83.70
49385;DHT22;36795;45.028;38.968;2022-11-15T03:45:20;3.90;83.50
49385;DHT22;36795;45.028;38.968;2022-11-15T03:48:52;3.90;83.70
49385;DHT22;36795;45.028;38.968;2022-11-15T03:51:57;3.90;83.60
49385;DHT22;36795;45.028;38.968;2022-11-15T03:55:04;3.90;83.40
49385;DHT22;36795;45.028;38.968;2022-11-15T03:58:09;3.90;83.40
49385;DHT22;36795;45.028;38.968;2022-11-15T04:01:14;3.80;83.40
49385;DHT22;36795;45.028;38.968;2022-11-15T04:04:18;3.80;83.60
49385;DHT22;36795;45.028;38.968;2022-11-15T04:07:22;3.90;83.60
49385;DHT22;36795;45.028;38.968;2022-11-15T04:10:26;3.80;83.60
49385;DHT22;36795;45.028;38.968;2022-11-15T04:13:30;3.80;83.60
49385;DHT22;36795;45.028;38.968;2022-11-15T04:16:37;3.80;83.60
49385;DHT22;36795;45.028;38.968;2022-11-15T04:19:41;3.90;83.70
49385;DHT22;36795;45.028;38.968;2022-11-15T04:23:18;3.90;83.60
49385;DHT22;36795;45.028;38.968;2022-11-15T04:26:41;3.90;83.60
49385;DHT22;36795;45.028;38.968;2022-11-15T04:29:45;3.90;83.40
49385;DHT22;36795;45.028;38.968;2022-11-15T04:32:50;3.90;83.50
49385;DHT22;36795;45.028;38.968;2022-11-15T04:35:54;3.90;83.60
49385;DHT22;36795;45.028;38.968;2022-11-15T04:39:17;3.90;83.80
49385;DHT22;36795;45.028;38.968;2022-11-15T04:42:21;3.90;84.00
49385;DHT22;36795;45.028;38.968;2022-11-15T04:45:26;3.90;84.20
49385;DHT22;36795;45.028;38.968;2022-11-15T04:48:30;3.90;84.20
49385;DHT22;36795;45.028;38.968;2022-11-15T04:51:34;3.90;84.30
49385;DHT22;36795;45.028;38.968;2022-11-15T04:54:38;3.90;84.40
49385;DHT22;36795;45.028;38.968;2022-11-15T04:57:42;3.90;84.50
49385;DHT22;36795;45.028;38.968;2022-11-15T05:00:46;4.00;84.70
49385;DHT22;36795;45.028;38.968;2022-11-15T05:03:50;4.10;84.70
49385;DHT22;36795;45.028;38.968;2022-11-15T05:07:13;4.10;84.50
49385;DHT22;36795;45.028;38.968;2022-11-15T05:10:17;4.20;84.90
49385;DHT22;36795;45.028;38.968;2022-11-15T05:13:22;4.20;84.30
49385;DHT22;36795;45.028;38.968;2022-11-15T05:16:26;4.30;84.30
49385;DHT22;36795;45.028;38.968;2022-11-15T05:19:30;4.30;84.30
49385;DHT22;36795;45.028;38.968;2022-11-15T05:22:35;4.40;84.30
49385;DHT22;36795;45.028;38.968;2022-11-15T05:25:39;4.50;84.30
49385;DHT22;36795;45.028;38.968;2022-11-15T05:28:43;4.50;84.30
49385;DHT22;36795;45.028;38.968;2022-11-15T05:31:48;4.60;84.20
49385;DHT22;36795;45.028;38.968;2022-11-15T05:34:52;4.70;83.90
49385;DHT22;36795;45.028;38.968;2022-11-15T05:37:56;4.60;84.00
49385;DHT22;36795;45.028;38.968;2022-11-15T05:41:01;4.70;84.20
49385;DHT22;36795;45.028;38.968;2022-11-15T05:44:08;4.70;84.10
49385;DHT22;36795;45.028;38.968;2022-11-15T05:47:17;4.70;84.40
49385;DHT22;36795;45.028;38.968;2022-11-15T05:50:23;4.70;84.20
49385;DHT22;36795;45.028;38.968;2022-11-15T05:53:27;4.80;84.40
49385;DHT22;36795;45.028;38.968;2022-11-15T05:56:32;5.00;84.70
49385;DHT22;36795;45.028;38.968;2022-11-15T05:59:36;5.10;84.20
49385;DHT22;36795;45.028;38.968;2022-11-15T06:02:40;5.20;83.90
49385;DHT22;36795;45.028;38.968;2022-11-15T06:05:45;5.40;84.00
49385;DHT22;36795;45.028;38.968;2022-11-15T06:08:49;5.50;83.80
49385;DHT22;36795;45.028;38.968;2022-11-15T06:11:53;5.60;83.50
49385;DHT22;36795;45.028;38.968;2022-11-15T06:14:57;5.60;83.20
49385;DHT22;36795;45.028;38.968;2022-11-15T06:18:02;5.60;83.20
49385;DHT22;36795;45.028;38.968;2022-11-15T06:21:06;5.60;83.30
49385;DHT22;36795;45.028;38.968;2022-11-15T06:24:10;5.80;83.60
49385;DHT22;36795;45.028;38.968;2022-11-15T06:27:15;5.90;83.30
49385;DHT22;36795;45.028;38.968;2022-11-15T06:30:20;6.00;83.10
49385;DHT22;36795;45.028;38.968;2022-11-15T06:33:24;6.00;82.70
49385;DHT22;36795;45.028;38.968;2022-11-15T06:36:28;6.10;83.00
49385;DHT22;36795;45.028;38.968;2022-11-15T06:39:33;6.20;83.10
49385;DHT22;36795;45.028;38.968;2022-11-15T06:42:37;6.30;82.60
49385;DHT22;36795;45.028;38.968;2022-11-15T06:45:41;6.20;82.80
49385;DHT22;36795;45.028;38.968;2022-11-15T06:48:45;6.30;83.30
49385;DHT22;36795;45.028;38.968;2022-11-15T06:51:53;6.60;83.20
49385;DHT22;36795;45.028;38.968;2022-11-15T06:55:05;6.90;82.80
49385;DHT22;36795;45.028;38.968;2022-11-15T06:58:12;7.30;82.10
49385;DHT22;36795;45.028;38.968;2022-11-15T07:01:17;7.60;80.90
49385;DHT22;36795;45.028;38.968;2022-11-15T07:04:21;7.90;80.50
49385;DHT22;36795;45.028;38.968;2022-11-15T07:07:25;8.00;79.30
49385;DHT22;36795;45.028;38.968;2022-11-15T07:10:29;8.10;79.00
49385;DHT22;36795;45.028;38.968;2022-11-15T07:13:35;8.30;78.00
49385;DHT22;36795;45.028;38.968;2022-11-15T07:16:42;8.50;77.60
49385;DHT22;36795;45.028;38.968;2022-11-15T07:19:46;8.80;76.60
49385;DHT22;36795;45.028;38.968;2022-11-15T07:22:51;8.90;75.70
49385;DHT22;36795;45.028;38.968;2022-11-15T07:25:57;9.40;75.20
49385;DHT22;36795;45.028;38.968;2022-11-15T07:29:02;11.20;71.90
49385;DHT22;36795;45.028;38.968;2022-11-15T07:32:06;14.00;64.10
49385;DHT22;36795;45.028;38.968;2022-11-15T07:35:10;15.20;59.30
49385;DHT22;36795;45.028;38.968;2022-11-15T07:38:16;15.40;56.90
49385;DHT22;36795;45.028;38.968;2022-11-15T07:41:23;15.20;56.70
49385;DHT22;36795;45.028;38.968;2022-11-15T07:44:27;14.80;58.00
49385;DHT22;36795;45.028;38.968;2022-11-15T07:47:31;15.00;57.50
49385;DHT22;36795;45.028;38.968;2022-11-15T07:50:35;15.50;56.40
49385;DHT22;36795;45.028;38.968;2022-11-15T07:53:40;16.00;54.80
49385;DHT22;36795;45.028;38.968;2022-11-15T07:56:44;17.30;51.50
49385;DHT22;36795;45.028;38.968;2022-11-15T07:59:48;18.80;47.50
49385;DHT22;36795;45.028;38.968;2022-11-15T08:02:53;18.60;46.00
49385;DHT22;36795;45.028;38.968;2022-11-15T08:06:05;18.60;45.50
49385;DHT22;36795;45.028;38.968;2022-11-15T08:09:09;18.00;45.30
49385;DHT22;36795;45.028;38.968;2022-11-15T08:12:14;16.90;46.00
49385;DHT22;36795;45.028;38.968;2022-11-15T08:15:18;16.50;48.00
49385;DHT22;36795;45.028;38.968;2022-11-15T08:18:22;18.20;45.00
49385;DHT22;36795;45.028;38.968;2022-11-15T08:21:26;18.00;43.90
49385;DHT22;36795;45.028;38.968;2022-11-15T08:24:30;17.20;44.40
49385;DHT22;36795;45.028;38.968;2022-11-15T08:27:35;17.20;44.50
49385;DHT22;36795;45.028;38.968;2022-11-15T08:30:40;17.30;44.10
49385;DHT22;36795;45.028;38.968;2022-11-15T08:33:45;17.90;42.80
49385;DHT22;36795;45.028;38.968;2022-11-15T08:36:49;20.20;39.60
49385;DHT22;36795;45.028;38.968;2022-11-15T08:39:54;21.50;37.40
49385;DHT22;36795;45.028;38.968;2022-11-15T08:42:58;21.50;36.60
49385;DHT22;36795;45.028;38.968;2022-11-15T08:46:07;21.70;36.00
49385;DHT22;36795;45.028;38.968;2022-11-15T08:49:12;22.10;35.00
49385;DHT22;36795;45.028;38.968;2022-11-15T08:52:16;22.40;34.80
49385;DHT22;36795;45.028;38.968;2022-11-15T08:55:20;23.50;34.00
49385;DHT22;36795;45.028;38.968;2022-11-15T08:58:24;25.30;32.90
49385;DHT22;36795;45.028;38.968;2022-11-15T09:01:29;25.90;30.80
49385;DHT22;36795;45.028;38.968;2022-11-15T09:04:33;25.30;29.60
49385;DHT22;36795;45.028;38.968;2022-11-15T09:07:37;24.20;30.30
49385;DHT22;36795;45.028;38.968;2022-11-15T09:10:41;23.10;31.70
49385;DHT22;36795;45.028;38.968;2022-11-15T09:13:45;22.30;31.80
49385;DHT22;36795;45.028;38.968;2022-11-15T09:16:49;20.70;32.50
49385;DHT22;36795;45.028;38.968;2022-11-15T09:19:53;18.80;35.50
49385;DHT22;36795;45.028;38.968;2022-11-15T09:23:04;19.00;36.20
49385;DHT22;36795;45.028;38.968;2022-11-15T09:26:08;19.80;34.50
49385;DHT22;36795;45.028;38.968;2022-11-15T09:29:12;19.00;36.40
49385;DHT22;36795;45.028;38.968;2022-11-15T09:32:17;20.00;35.90
49385;DHT22;36795;45.028;38.968;2022-11-15T09:35:21;22.00;33.60
49385;DHT22;36795;45.028;38.968;2022-11-15T09:38:25;22.70;32.20
49385;DHT22;36795;45.028;38.968;2022-11-15T09:41:45;22.40;32.30
49385;DHT22;36795;45.028;38.968;2022-11-15T09:45:13;20.90;33.50
49385;DHT22;36795;45.028;38.968;2022-11-15T09:51:50;19.50;35.80
49385;DHT22;36795;45.028;38.968;2022-11-15T09:54:38;20.20;34.80
49385;DHT22;36795;45.028;38.968;2022-11-15T10:00:40;20.20;34.00
49385;DHT22;36795;45.028;38.968;2022-11-15T10:03:35;19.50;35.10
49385;DHT22;36795;45.028;38.968;2022-11-15T10:06:25;19.30;35.90
49385;DHT22;36795;45.028;38.968;2022-11-15T10:09:13;20.00;35.40
49385;DHT22;36795;45.028;38.968;2022-11-15T10:12:00;20.10;34.70
49385;DHT22;36795;45.028;38.968;2022-11-15T10:14:49;19.40;34.90
49385;DHT22;36795;45.028;38.968;2022-11-15T10:18:15;18.40;36.40
49385;DHT22;36795;45.028;38.968;2022-11-15T10:21:24;17.80;37.30
49385;DHT22;36795;45.028;38.968;2022-11-15T10:24:12;17.60;37.90
49385;DHT22;36795;45.028;38.968;2022-11-15T10:26:59;17.40;37.80
49385;DHT22;36795;45.028;38.968;2022-11-15T10:29:49;16.90;38.60
49385;DHT22;36795;45.028;38.968;2022-11-15T10:32:40;15.90;39.80
49385;DHT22;36795;45.028;38.968;2022-11-15T10:35:29;15.00;41.40
49385;DHT22;36795;45.028;38.968;2022-11-15T10:38:15;14.20;43.00
49385;DHT22;36795;45.028;38.968;2022-11-15T10:41:07;13.60;44.00
49385;DHT22;36795;45.028;38.968;2022-11-15T10:49:54;13.20;45.80
49385;DHT22;36795;45.028;38.968;2022-11-15T10:52:45;12.90;46.60
49385;DHT22;36795;45.028;38.968;2022-11-15T10:55:34;12.70;47.20
49385;DHT22;36795;45.028;38.968;2022-11-15T10:58:30;12.60;47.70
49385;DHT22;36795;45.028;38.968;2022-11-15T11:01:21;12.60;47.60
49385;DHT22;36795;45.028;38.968;2022-11-15T11:04:09;12.50;47.50
49385;DHT22;36795;45.028;38.968;2022-11-15T11:06:59;12.60;47.70
49385;DHT22;36795;45.028;38.968;2022-11-15T11:10:00;12.70;47.80
49385;DHT22;36795;45.028;38.968;2022-11-15T11:12:46;12.70;47.70
49385;DHT22;36795;45.028;38.968;2022-11-15T11:15:32;12.80;47.70
49385;DHT22;36795;45.028;38.968;2022-11-15T11:22:25;12.80;48.10
49385;DHT22;36795;45.028;38.968;2022-11-15T11:25:41;12.70;48.40
49385;DHT22;36795;45.028;38.968;2022-11-15T11:31:58;12.40;49.20
49385;DHT22;36795;45.028;38.968;2022-11-15T11:46:59;13.90;48.70
49385;DHT22;36795;45.028;38.968;2022-11-15T11:50:13;15.20;46.70
49385;DHT22;36795;45.028;38.968;2022-11-15T11:56:02;18.00;41.70
49385;DHT22;36795;45.028;38.968;2022-11-15T11:58:51;18.70;40.30
49385;DHT22;36795;45.028;38.968;2022-11-15T12:01:44;18.70;39.80
49385;DHT22;36795;45.028;38.968;2022-11-15T12:04:36;18.30;40.40
49385;DHT22;36795;45.028;38.968;2022-11-15T12:07:27;18.50;40.40
49385;DHT22;36795;45.028;38.968;2022-11-15T12:10:25;19.30;39.00
49385;DHT22;36795;45.028;38.968;2022-11-15T12:13:21;20.30;37.80
49385;DHT22;36795;45.028;38.968;2022-11-15T12:16:40;21.70;36.10
49385;DHT22;36795;45.028;38.968;2022-11-15T12:19:29;22.30;34.10
49385;DHT22;36795;45.028;38.968;2022-11-15T12:25:33;21.60;34.80
49385;DHT22;36795;45.028;38.968;2022-11-15T12:28:43;20.60;35.40
49385;DHT22;36795;45.028;38.968;2022-11-15T12:31:51;18.90;37.50
49385;DHT22;36795;45.028;38.968;2022-11-15T12:34:44;16.90;40.10
49385;DHT22;36795;45.028;38.968;2022-11-15T12:37:50;15.30;42.80
49385;DHT22;36795;45.028;38.968;2022-11-15T12:41:12;14.20;45.10
49385;DHT22;36795;45.028;38.968;2022-11-15T12:44:00;13.20;47.10
49385;DHT22;36795;45.028;38.968;2022-11-15T12:52:21;12.10;49.70
49385;DHT22;36795;45.028;38.968;2022-11-15T12:55:32;11.90;50.50
49385;DHT22;36795;45.028;38.968;2022-11-15T12:58:55;11.80;51.20
49385;DHT22;36795;45.028;38.968;2022-11-15T13:04:28;11.50;52.10
49385;DHT22;36795;45.028;38.968;2022-11-15T13:13:44;11.20;53.20
49385;DHT22;36795;45.028;38.968;2022-11-15T13:16:30;11.10;53.70
49385;DHT22;36795;45.028;38.968;2022-11-15T13:19:18;10.90;53.90
49385;DHT22;36795;45.028;38.968;2022-11-15T13:22:12;10.80;54.20
49385;DHT22;36795;45.028;38.968;2022-11-15T13:28:21;10.60;54.60
49385;DHT22;36795;45.028;38.968;2022-11-15T13:31:22;10.60;55.10
49385;DHT22;36795;45.028;38.968;2022-11-15T13:34:28;10.50;55.20
49385;DHT22;36795;45.028;38.968;2022-11-15T13:40:28;10.20;55.70
49385;DHT22;36795;45.028;38.968;2022-11-15T13:46:17;10.00;56.20
49385;DHT22;36795;45.028;38.968;2022-11-15T13:49:07;10.00;56.40
49385;DHT22;36795;45.028;38.968;2022-11-15T13:51:54;10.00;57.20
49385;DHT22;36795;45.028;38.968;2022-11-15T13:55:03;9.90;57.00
49385;DHT22;36795;45.028;38.968;2022-11-15T13:57:58;9.70;57.40
49385;DHT22;36795;45.028;38.968;2022-11-15T14:00:45;9.60;57.70
49385;DHT22;36795;45.028;38.968;2022-11-15T14:03:35;9.50;58.00
49385;DHT22;36795;45.028;38.968;2022-11-15T14:06:26;9.50;58.30
49385;DHT22;36795;45.028;38.968;2022-11-15T14:09:36;9.40;58.60
49385;DHT22;36795;45.028;38.968;2022-11-15T14:12:35;9.30;58.90
49385;DHT22;36795;45.028;38.968;2022-11-15T14:15:36;9.20;59.10
49385;DHT22;36795;45.028;38.968;2022-11-15T14:18:50;9.20;59.40
49385;DHT22;36795;45.028;38.968;2022-11-15T14:22:10;9.10;59.50
49385;DHT22;36795;45.028;38.968;2022-11-15T14:28:16;9.00;60.10
49385;DHT22;36795;45.028;38.968;2022-11-15T14:31:21;9.00;60.30
49385;DHT22;36795;45.028;38.968;2022-11-15T14:34:09;8.90;60.40
49385;DHT22;36795;45.028;38.968;2022-11-15T14:36:55;8.90;60.70
49385;DHT22;36795;45.028;38.968;2022-11-15T14:39:41;8.90;60.80
49385;DHT22;36795;45.028;38.968;2022-11-15T14:42:27;8.90;60.90
49385;DHT22;36795;45.028;38.968;2022-11-15T14:45:23;8.80;61.10
49385;DHT22;36795;45.028;38.968;2022-11-15T14:48:09;8.80;61.10
49385;DHT22;36795;45.028;38.968;2022-11-15T14:50:56;8.80;61.30
49385;DHT22;36795;45.028;38.968;2022-11-15T14:53:43;8.70;61.50
49385;DHT22;36795;45.028;38.968;2022-11-15T14:56:30;8.70;61.90
49385;DHT22;36795;45.028;38.968;2022-11-15T14:59:16;8.70;62.10
49385;DHT22;36795;45.028;38.968;2022-11-15T15:02:04;8.70;62.20
49385;DHT22;36795;45.028;38.968;2022-11-15T15:04:54;8.70;62.40
49385;DHT22;36795;45.028;38.968;2022-11-15T15:07:40;8.60;62.50
49385;DHT22;36795;45.028;38.968;2022-11-15T15:10:31;8.60;62.70
49385;DHT22;36795;45.028;38.968;2022-11-15T15:13:21;8.60;63.00
49385;DHT22;36795;45.028;38.968;2022-11-15T15:16:08;8.50;63.20
49385;DHT22;36795;45.028;38.968;2022-11-15T15:18:54;8.50;63.40
49385;DHT22;36795;45.028;38.968;2022-11-15T15:21:41;8.50;63.60
49385;DHT22;36795;45.028;38.968;2022-11-15T15:24:30;8.40;63.80
49385;DHT22;36795;45.028;38.968;2022-11-15T15:27:16;8.40;64.00
49385;DHT22;36795;45.028;38.968;2022-11-15T15:30:03;8.40;64.10
49385;DHT22;36795;45.028;38.968;2022-11-15T15:32:55;8.40;64.20
49385;DHT22;36795;45.028;38.968;2022-11-15T15:35:42;8.30;64.30
49385;DHT22;36795;45.028;38.968;2022-11-15T15:38:28;8.30;64.40
49385;DHT22;36795;45.028;38.968;2022-11-15T15:41:15;8.30;64.60
49385;DHT22;36795;45.028;38.968;2022-11-15T15:44:02;8.30;64.60
49385;DHT22;36795;45.028;38.968;2022-11-15T15:46:48;8.30;64.70
49385;DHT22;36795;45.028;38.968;2022-11-15T15:49:34;8.20;64.70
49385;DHT22;36795;45.028;38.968;2022-11-15T15:52:20;8.20;64.80
49385;DHT22;36795;45.028;38.968;2022-11-15T15:55:07;8.20;65.00
49385;DHT22;36795;45.028;38.968;2022-11-15T15:57:53;8.20;65.00
49385;DHT22;36795;45.028;38.968;2022-11-15T16:00:39;8.10;65.20
49385;DHT22;36795;45.028;38.968;2022-11-15T16:03:25;8.10;65.20
49385;DHT22;36795;45.028;38.968;2022-11-15T16:06:45;8.10;65.40
49385;DHT22;36795;45.028;38.968;2022-11-15T16:09:31;8.10;65.60
49385;DHT22;36795;45.028;38.968;2022-11-15T16:12:36;8.00;65.60
49385;DHT22;36795;45.028;38.968;2022-11-15T16:15:24;8.00;65.70
49385;DHT22;36795;45.028;38.968;2022-11-15T16:18:16;8.00;65.80
49385;DHT22;36795;45.028;38.968;2022-11-15T16:21:02;8.00;65.80
49385;DHT22;36795;45.028;38.968;2022-11-15T16:23:48;7.90;65.80
49385;DHT22;36795;45.028;38.968;2022-11-15T16:26:35;7.90;65.90
49385;DHT22;36795;45.028;38.968;2022-11-15T16:29:21;7.90;65.80
49385;DHT22;36795;45.028;38.968;2022-11-15T16:32:07;7.90;65.80
49385;DHT22;36795;45.028;38.968;2022-11-15T16:34:53;7.90;66.30
49385;DHT22;36795;45.028;38.968;2022-11-15T16:37:42;7.90;65.70
49385;DHT22;36795;45.028;38.968;2022-11-15T16:40:33;7.90;65.70
49385;DHT22;36795;45.028;38.968;2022-11-15T16:43:20;7.90;65.60
49385;DHT22;36795;45.028;38.968;2022-11-15T16:46:23;7.80;65.60
49385;DHT22;36795;45.028;38.968;2022-11-15T16:49:14;7.80;65.60
49385;DHT22;36795;45.028;38.968;2022-11-15T16:52:00;7.70;65.50
49385;DHT22;36795;45.028;38.968;2022-11-15T16:54:47;7.70;65.40
49385;DHT22;36795;45.028;38.968;2022-11-15T16:57:32;7.70;65.40
49385;DHT22;36795;45.028;38.968;2022-11-15T17:00:19;7.70;65.40
49385;DHT22;36795;45.028;38.968;2022-11-15T17:03:05;7.70;65.40
49385;DHT22;36795;45.028;38.968;2022-11-15T17:05:52;7.60;65.40
49385;DHT22;36795;45.028;38.968;2022-11-15T17:08:43;7.60;65.50
49385;DHT22;36795;45.028;38.968;2022-11-15T17:11:29;7.60;65.60
49385;DHT22;36795;45.028;38.968;2022-11-15T17:14:15;7.60;65.80
49385;DHT22;36795;45.028;38.968;2022-11-15T17:17:02;7.60;65.90
49385;DHT22;36795;45.028;38.968;2022-11-15T17:19:52;7.50;65.90
49385;DHT22;36795;45.028;38.968;2022-11-15T17:22:42;7.50;66.10
49385;DHT22;36795;45.028;38.968;2022-11-15T17:25:28;7.50;66.20
49385;DHT22;36795;45.028;38.968;2022-11-15T17:28:15;7.50;66.40
49385;DHT22;36795;45.028;38.968;2022-11-15T17:31:01;7.50;66.50
49385;DHT22;36795;45.028;38.968;2022-11-15T17:33:47;7.50;66.60
49385;DHT22;36795;45.028;38.968;2022-11-15T17:36:33;7.40;66.60
49385;DHT22;36795;45.028;38.968;2022-11-15T17:39:20;7.40;66.80
49385;DHT22;36795;45.028;38.968;2022-11-15T17:42:08;7.40;66.80
49385;DHT22;36795;45.028;38.968;2022-11-15T17:44:54;7.30;66.80
49385;DHT22;36795;45.028;38.968;2022-11-15T17:47:40;7.30;66.80
49385;DHT22;36795;45.028;38.968;2022-11-15T17:50:26;7.30;66.80
49385;DHT22;36795;45.028;38.968;2022-11-15T17:53:12;7.20;66.80
49385;DHT22;36795;45.028;38.968;2022-11-15T17:56:07;7.20;66.80
49385;DHT22;36795;45.028;38.968;2022-11-15T17:58:55;7.20;67.30
49385;DHT22;36795;45.028;38.968;2022-11-15T18:01:42;7.20;66.80
49385;DHT22;36795;45.028;38.968;2022-11-15T18:04:28;7.20;66.90
49385;DHT22;36795;45.028;38.968;2022-11-15T18:07:15;7.20;67.10
49385;DHT22;36795;45.028;38.968;2022-11-15T18:10:01;7.10;67.30
49385;DHT22;36795;45.028;38.968;2022-11-15T18:12:47;7.10;67.40
49385;DHT22;36795;45.028;38.968;2022-11-15T18:15:34;7.10;67.70
49385;DHT22;36795;45.028;38.968;2022-11-15T18:18:20;7.00;67.80
49385;DHT22;36795;45.028;38.968;2022-11-15T18:21:15;7.00;67.90
49385;DHT22;36795;45.028;38.968;2022-11-15T18:24:03;7.00;68.60
49385;DHT22;36795;45.028;38.968;2022-11-15T18:26:50;7.00;68.20
49385;DHT22;36795;45.028;38.968;2022-11-15T18:29:36;7.00;68.50
49385;DHT22;36795;45.028;38.968;2022-11-15T18:32:22;7.00;68.60
49385;DHT22;36795;45.028;38.968;2022-11-15T18:35:08;7.00;68.60
49385;DHT22;36795;45.028;38.968;2022-11-15T18:37:55;6.90;68.70
49385;DHT22;36795;45.028;38.968;2022-11-15T18:40:41;6.90;68.80
49385;DHT22;36795;45.028;38.968;2022-11-15T18:43:27;6.90;68.90
49385;DHT22;36795;45.028;38.968;2022-11-15T18:46:15;6.90;68.90
49385;DHT22;36795;45.028;38.968;2022-11-15T18:49:02;6.90;69.00
49385;DHT22;36795;45.028;38.968;2022-11-15T18:51:49;6.90;69.00
49385;DHT22;36795;45.028;38.968;2022-11-15T18:54:35;6.90;69.00
49385;DHT22;36795;45.028;38.968;2022-11-15T18:57:21;6.90;69.10
49385;DHT22;36795;45.028;38.968;2022-11-15T19:00:08;6.80;69.00
49385;DHT22;36795;45.028;38.968;2022-11-15T19:02:55;6.80;69.00
49385;DHT22;36795;45.028;38.968;2022-11-15T19:05:41;6.80;68.90
49385;DHT22;36795;45.028;38.968;2022-11-15T19:08:27;6.80;68.90
49385;DHT22;36795;45.028;38.968;2022-11-15T19:11:18;6.80;68.90
49385;DHT22;36795;45.028;38.968;2022-11-15T19:14:11;6.80;68.90
49385;DHT22;36795;45.028;38.968;2022-11-15T19:16:57;6.80;68.90
49385;DHT22;36795;45.028;38.968;2022-11-15T19:19:43;6.80;68.90
49385;DHT22;36795;45.028;38.968;2022-11-15T19:22:30;6.80;68.90
49385;DHT22;36795;45.028;38.968;2022-11-15T19:25:16;6.70;68.90
49385;DHT22;36795;45.028;38.968;2022-11-15T19:28:03;6.70;69.00
49385;DHT22;36795;45.028;38.968;2022-11-15T19:30:50;6.70;69.00
49385;DHT22;36795;45.028;38.968;2022-11-15T19:33:37;6.70;69.00
49385;DHT22;36795;45.028;38.968;2022-11-15T19:36:26;6.70;69.10
49385;DHT22;36795;45.028;38.968;2022-11-15T19:39:13;6.60;69.20
49385;DHT22;36795;45.028;38.968;2022-11-15T19:42:01;6.60;69.30
49385;DHT22;36795;45.028;38.968;2022-11-15T19:44:49;6.60;69.40
49385;DHT22;36795;45.028;38.968;2022-11-15T19:47:37;6.50;69.50
49385;DHT22;36795;45.028;38.968;2022-11-15T19:50:23;6.50;69.60
49385;DHT22;36795;45.028;38.968;2022-11-15T19:53:09;6.50;69.70
49385;DHT22;36795;45.028;38.968;2022-11-15T19:55:58;6.50;69.90
49385;DHT22;36795;45.028;38.968;2022-11-15T19:58:45;6.50;70.10
49385;DHT22;36795;45.028;38.968;2022-11-15T20:01:35;6.40;70.20
49385;DHT22;36795;45.028;38.968;2022-11-15T20:04:23;6.40;70.30
49385;DHT22;36795;45.028;38.968;2022-11-15T20:07:09;6.40;70.30
49385;DHT22;36795;45.028;38.968;2022-11-15T20:09:55;6.40;70.30
49385;DHT22;36795;45.028;38.968;2022-11-15T20:12:41;6.40;70.50
49385;DHT22;36795;45.028;38.968;2022-11-15T20:15:28;6.30;70.60